sensor_id;sensor_type;location;lat;lon;timestamp;temperature;humidity
33508;DHT22;25568;37.410;-122.096;2023-09-30T00:00:19;22.60;82.50
33508;DHT22;25568;37.410;-122.096;2023-09-30T00:02:50;22.70;82.30
33508;DHT22;25568;37.410;-122.096;2023-09-30T00:05:19;22.70;83.00
33508;DHT22;25568;37.410;-122.096;2023-09-30T00:07:48;22.70;82.10
33508;DHT22;25568;37.410;-122.096;2023-09-30T00:10:19;22.70;82.10
33508;DHT22;25568;37.410;-122.096;2023-09-30T00:12:48;22.70;82.80
33508;DHT22;25568;37.410;-122.096;2023-09-30T00:15:17;22.70;82.00
33508;DHT22;25568;37.410;-122.096;2023-09-30T00:17:46;22.70;81.60
33508;DHT22;25568;37.410;-122.096;2023-09-30T00:20:15;22.70;81.30
33508;DHT22;25568;37.410;-122.096;2023-09-30T00:22:44;22.70;81.20
33508;DHT22;25568;37.410;-122.096;2023-09-30T00:25:13;22.70;81.20
33508;DHT22;25568;37.410;-122.096;2023-09-30T00:27:44;22.70;81.50
33508;DHT22;25568;37.410;-122.096;2023-09-30T00:30:13;22.70;81.50
33508;DHT22;25568;37.410;-122.096;2023-09-30T00:32:42;22.70;81.10
33508;DHT22;25568;37.410;-122.096;2023-09-30T00:35:11;22.70;80.90
33508;DHT22;25568;37.410;-122.096;2023-09-30T00:37:40;22.70;80.80
33508;DHT22;25568;37.410;-122.096;2023-09-30T00:40:10;22.70;81.00
33508;DHT22;25568;37.410;-122.096;2023-09-30T00:42:40;22.70;81.00
33508;DHT22;25568;37.410;-122.096;2023-09-30T00:45:24;22.70;80.90
33508;DHT22;25568;37.410;-122.096;2023-09-30T00:47:53;22.70;81.00
33508;DHT22;25568;37.410;-122.096;2023-09-30T00:50:46;22.70;81.00
33508;DHT22;25568;37.410;-122.096;2023-09-30T00:53:26;22.70;81.20
33508;DHT22;25568;37.410;-122.096;2023-09-30T00:55:56;22.70;81.70
33508;DHT22;25568;37.410;-122.096;2023-09-30T00:58:36;22.70;81.70
33508;DHT22;25568;37.410;-122.096;2023-09-30T01:01:38;22.80;81.90
33508;DHT22;25568;37.410;-122.096;2023-09-30T01:04:53;22.80;82.00
33508;DHT22;25568;37.410;-122.096;2023-09-30T01:08:36;22.80;81.80
33508;DHT22;25568;37.410;-122.096;2023-09-30T01:12:03;22.80;81.80
33508;DHT22;25568;37.410;-122.096;2023-09-30T01:15:07;22.80;82.10
33508;DHT22;25568;37.410;-122.096;2023-09-30T01:17:53;22.80;82.10
33508;DHT22;25568;37.410;-122.096;2023-09-30T01:20:58;22.80;82.30
33508;DHT22;25568;37.410;-122.096;2023-09-30T01:23:44;22.80;82.40
33508;DHT22;25568;37.410;-122.096;2023-09-30T01:26:58;22.80;82.40
33508;DHT22;25568;37.410;-122.096;2023-09-30T02:01:36;22.80;82.20
33508;DHT22;25568;37.410;-122.096;2023-09-30T02:04:34;22.80;82.10
33508;DHT22;25568;37.410;-122.096;2023-09-30T02:07:34;22.80;82.10
33508;DHT22;25568;37.410;-122.096;2023-09-30T02:10:52;22.80;82.20
33508;DHT22;25568;37.410;-122.096;2023-09-30T02:13:48;22.80;82.30
33508;DHT22;25568;37.410;-122.096;2023-09-30T02:16:17;22.80;82.10
33508;DHT22;25568;37.410;-122.096;2023-09-30T02:18:46;22.80;81.90
33508;DHT22;25568;37.410;-122.096;2023-09-30T02:21:17;22.70;81.60
33508;DHT22;25568;37.410;-122.096;2023-09-30T02:23:47;22.70;81.60
33508;DHT22;25568;37.410;-122.096;2023-09-30T02:26:17;22.70;81.50
33508;DHT22;25568;37.410;-122.096;2023-09-30T02:28:48;22.70;81.40
33508;DHT22;25568;37.410;-122.096;2023-09-30T02:31:17;22.70;81.50
33508;DHT22;25568;37.410;-122.096;2023-09-30T02:33:46;22.80;81.70
33508;DHT22;25568;37.410;-122.096;2023-09-30T02:36:15;22.80;81.50
33508;DHT22;25568;37.410;-122.096;2023-09-30T02:38:44;22.70;81.20
33508;DHT22;25568;37.410;-122.096;2023-09-30T02:41:13;22.70;81.30
33508;DHT22;25568;37.410;-122.096;2023-09-30T02:43:42;22.70;81.40
33508;DHT22;25568;37.410;-122.096;2023-09-30T02:46:12;22.70;81.40
33508;DHT22;25568;37.410;-122.096;2023-09-30T02:48:41;22.70;81.30
33508;DHT22;25568;37.410;-122.096;2023-09-30T02:51:10;22.70;81.30
33508;DHT22;25568;37.410;-122.096;2023-09-30T02:53:39;22.80;81.50
33508;DHT22;25568;37.410;-122.096;2023-09-30T02:56:09;22.80;81.60
33508;DHT22;25568;37.410;-122.096;2023-09-30T02:58:38;22.80;81.30
33508;DHT22;25568;37.410;-122.096;2023-09-30T03:01:07;22.70;81.20
33508;DHT22;25568;37.410;-122.096;2023-09-30T03:03:38;22.80;82.20
33508;DHT22;25568;37.410;-122.096;2023-09-30T03:06:07;22.70;81.50
33508;DHT22;25568;37.410;-122.096;2023-09-30T03:08:37;22.70;81.50
33508;DHT22;25568;37.410;-122.096;2023-09-30T03:11:07;22.70;81.70
33508;DHT22;25568;37.410;-122.096;2023-09-30T03:13:37;22.70;81.80
33508;DHT22;25568;37.410;-122.096;2023-09-30T03:16:07;22.70;82.00
33508;DHT22;25568;37.410;-122.096;2023-09-30T03:18:38;22.70;82.00
33508;DHT22;25568;37.410;-122.096;2023-09-30T03:21:14;22.70;82.10
33508;DHT22;25568;37.410;-122.096;2023-09-30T03:23:43;22.70;82.10
33508;DHT22;25568;37.410;-122.096;2023-09-30T03:26:12;22.80;82.20
33508;DHT22;25568;37.410;-122.096;2023-09-30T03:28:41;22.70;82.20
33508;DHT22;25568;37.410;-122.096;2023-09-30T03:31:10;22.70;82.20
33508;DHT22;25568;37.410;-122.096;2023-09-30T03:33:40;22.70;82.40
33508;DHT22;25568;37.410;-122.096;2023-09-30T03:36:10;22.70;82.30
33508;DHT22;25568;37.410;-122.096;2023-09-30T03:38:39;22.70;83.00
33508;DHT22;25568;37.410;-122.096;2023-09-30T03:41:08;22.70;82.20
33508;DHT22;25568;37.410;-122.096;2023-09-30T03:43:39;22.70;82.30
33508;DHT22;25568;37.410;-122.096;2023-09-30T03:46:09;22.70;82.00
33508;DHT22;25568;37.410;-122.096;2023-09-30T03:48:40;22.70;82.10
33508;DHT22;25568;37.410;-122.096;2023-09-30T03:51:11;22.70;82.20
33508;DHT22;25568;37.410;-122.096;2023-09-30T03:53:41;22.70;82.20
33508;DHT22;25568;37.410;-122.096;2023-09-30T03:56:10;22.70;82.30
33508;DHT22;25568;37.410;-122.096;2023-09-30T03:58:40;22.70;82.20
33508;DHT22;25568;37.410;-122.096;2023-09-30T04:01:09;22.70;82.20
33508;DHT22;25568;37.410;-122.096;2023-09-30T04:03:41;22.70;82.20
33508;DHT22;25568;37.410;-122.096;2023-09-30T04:06:11;22.60;82.30
33508;DHT22;25568;37.410;-122.096;2023-09-30T04:08:40;22.70;82.30
33508;DHT22;25568;37.410;-122.096;2023-09-30T04:11:10;22.70;82.40
33508;DHT22;25568;37.410;-122.096;2023-09-30T04:13:45;22.60;82.30
33508;DHT22;25568;37.410;-122.096;2023-09-30T04:16:14;22.70;82.50
33508;DHT22;25568;37.410;-122.096;2023-09-30T04:18:47;22.60;82.40
33508;DHT22;25568;37.410;-122.096;2023-09-30T04:21:16;22.70;82.50
33508;DHT22;25568;37.410;-122.096;2023-09-30T04:23:46;22.60;82.50
33508;DHT22;25568;37.410;-122.096;2023-09-30T04:26:16;22.70;82.50
33508;DHT22;25568;37.410;-122.096;2023-09-30T04:28:44;22.60;82.30
33508;DHT22;25568;37.410;-122.096;2023-09-30T04:31:13;22.60;82.40
33508;DHT22;25568;37.410;-122.096;2023-09-30T04:33:42;22.60;82.40
33508;DHT22;25568;37.410;-122.096;2023-09-30T04:36:13;22.60;82.40
33508;DHT22;25568;37.410;-122.096;2023-09-30T04:38:43;22.60;82.30
33508;DHT22;25568;37.410;-122.096;2023-09-30T04:41:11;22.60;82.30
33508;DHT22;25568;37.410;-122.096;2023-09-30T04:43:42;22.60;82.40
33508;DHT22;25568;37.410;-122.096;2023-09-30T04:46:11;22.60;82.40
33508;DHT22;25568;37.410;-122.096;2023-09-30T04:48:41;22.60;82.50
33508;DHT22;25568;37.410;-122.096;2023-09-30T04:51:10;22.60;82.40
33508;DHT22;25568;37.410;-122.096;2023-09-30T04:53:44;22.60;82.40
33508;DHT22;25568;37.410;-122.096;2023-09-30T04:56:13;22.50;82.40
33508;DHT22;25568;37.410;-122.096;2023-09-30T04:58:42;22.50;82.40
33508;DHT22;25568;37.410;-122.096;2023-09-30T05:01:13;22.50;82.50
33508;DHT22;25568;37.410;-122.096;2023-09-30T05:03:42;22.50;82.40
33508;DHT22;25568;37.410;-122.096;2023-09-30T05:06:11;22.60;82.40
33508;DHT22;25568;37.410;-122.096;2023-09-30T05:08:40;22.60;82.50
33508;DHT22;25568;37.410;-122.096;2023-09-30T05:11:11;22.50;82.30
33508;DHT22;25568;37.410;-122.096;2023-09-30T05:13:39;22.50;82.50
33508;DHT22;25568;37.410;-122.096;2023-09-30T05:16:08;22.50;82.40
33508;DHT22;25568;37.410;-122.096;2023-09-30T05:18:40;22.50;82.50
33508;DHT22;25568;37.410;-122.096;2023-09-30T05:21:08;22.50;82.50
33508;DHT22;25568;37.410;-122.096;2023-09-30T05:23:38;22.50;82.70
33508;DHT22;25568;37.410;-122.096;2023-09-30T05:26:07;22.50;82.40
33508;DHT22;25568;37.410;-122.096;2023-09-30T05:28:37;22.50;82.70
33508;DHT22;25568;37.410;-122.096;2023-09-30T05:31:06;22.50;82.60
33508;DHT22;25568;37.410;-122.096;2023-09-30T05:33:36;22.50;82.50
33508;DHT22;25568;37.410;-122.096;2023-09-30T05:36:05;22.50;82.30
33508;DHT22;25568;37.410;-122.096;2023-09-30T05:38:34;22.50;82.10
33508;DHT22;25568;37.410;-122.096;2023-09-30T05:41:03;22.50;82.20
33508;DHT22;25568;37.410;-122.096;2023-09-30T05:43:33;22.50;83.00
33508;DHT22;25568;37.410;-122.096;2023-09-30T05:46:03;22.50;83.20
33508;DHT22;25568;37.410;-122.096;2023-09-30T05:48:33;22.50;83.30
33508;DHT22;25568;37.410;-122.096;2023-09-30T05:51:02;22.50;83.50
33508;DHT22;25568;37.410;-122.096;2023-09-30T05:53:31;22.50;83.50
33508;DHT22;25568;37.410;-122.096;2023-09-30T05:56:00;22.50;83.60
33508;DHT22;25568;37.410;-122.096;2023-09-30T05:58:30;22.50;83.80
33508;DHT22;25568;37.410;-122.096;2023-09-30T06:00:59;22.50;83.60
33508;DHT22;25568;37.410;-122.096;2023-09-30T06:03:30;22.50;83.80
33508;DHT22;25568;37.410;-122.096;2023-09-30T06:05:59;22.50;84.10
33508;DHT22;25568;37.410;-122.096;2023-09-30T06:08:28;22.50;83.90
33508;DHT22;25568;37.410;-122.096;2023-09-30T06:10:57;22.50;84.80
33508;DHT22;25568;37.410;-122.096;2023-09-30T06:13:26;22.50;83.80
33508;DHT22;25568;37.410;-122.096;2023-09-30T06:15:58;22.50;83.90
33508;DHT22;25568;37.410;-122.096;2023-09-30T06:18:31;22.60;84.30
33508;DHT22;25568;37.410;-122.096;2023-09-30T06:21:00;22.60;84.10
33508;DHT22;25568;37.410;-122.096;2023-09-30T06:23:30;22.60;84.40
33508;DHT22;25568;37.410;-122.096;2023-09-30T06:26:00;22.60;84.30
33508;DHT22;25568;37.410;-122.096;2023-09-30T06:28:30;22.60;84.20
33508;DHT22;25568;37.410;-122.096;2023-09-30T06:31:00;22.60;84.20
33508;DHT22;25568;37.410;-122.096;2023-09-30T06:33:31;22.50;84.30
33508;DHT22;25568;37.410;-122.096;2023-09-30T06:36:00;22.60;84.00
33508;DHT22;25568;37.410;-122.096;2023-09-30T06:38:28;22.50;84.20
33508;DHT22;25568;37.410;-122.096;2023-09-30T06:40:57;22.50;85.10
33508;DHT22;25568;37.410;-122.096;2023-09-30T06:43:26;22.50;84.30
33508;DHT22;25568;37.410;-122.096;2023-09-30T06:45:56;22.50;84.20
33508;DHT22;25568;37.410;-122.096;2023-09-30T06:48:25;22.50;84.20
33508;DHT22;25568;37.410;-122.096;2023-09-30T06:50:55;22.50;84.30
33508;DHT22;25568;37.410;-122.096;2023-09-30T06:53:25;22.50;84.30
33508;DHT22;25568;37.410;-122.096;2023-09-30T06:55:54;22.50;84.00
33508;DHT22;25568;37.410;-122.096;2023-09-30T06:58:23;22.50;83.80
33508;DHT22;25568;37.410;-122.096;2023-09-30T07:00:53;22.50;84.00
33508;DHT22;25568;37.410;-122.096;2023-09-30T07:03:22;22.50;84.30
33508;DHT22;25568;37.410;-122.096;2023-09-30T07:05:51;22.50;85.00
33508;DHT22;25568;37.410;-122.096;2023-09-30T07:08:22;22.50;84.30
33508;DHT22;25568;37.410;-122.096;2023-09-30T07:10:51;22.50;84.10
33508;DHT22;25568;37.410;-122.096;2023-09-30T07:13:20;22.40;84.00
33508;DHT22;25568;37.410;-122.096;2023-09-30T07:15:50;22.40;84.20
33508;DHT22;25568;37.410;-122.096;2023-09-30T07:18:19;22.50;84.30
33508;DHT22;25568;37.410;-122.096;2023-09-30T07:20:48;22.40;84.50
33508;DHT22;25568;37.410;-122.096;2023-09-30T07:23:17;22.40;84.30
33508;DHT22;25568;37.410;-122.096;2023-09-30T07:25:47;22.40;84.50
33508;DHT22;25568;37.410;-122.096;2023-09-30T07:28:16;22.40;84.50
33508;DHT22;25568;37.410;-122.096;2023-09-30T07:30:45;22.50;84.90
33508;DHT22;25568;37.410;-122.096;2023-09-30T07:33:14;22.70;84.00
33508;DHT22;25568;37.410;-122.096;2023-09-30T07:35:43;22.70;84.00
33508;DHT22;25568;37.410;-122.096;2023-09-30T07:38:12;22.70;83.80
33508;DHT22;25568;37.410;-122.096;2023-09-30T07:40:41;22.70;84.60
33508;DHT22;25568;37.410;-122.096;2023-09-30T07:43:11;22.60;83.80
33508;DHT22;25568;37.410;-122.096;2023-09-30T07:45:41;22.60;84.00
33508;DHT22;25568;37.410;-122.096;2023-09-30T07:48:10;22.60;84.30
33508;DHT22;25568;37.410;-122.096;2023-09-30T07:50:40;22.70;84.50
33508;DHT22;25568;37.410;-122.096;2023-09-30T07:53:09;22.70;84.50
33508;DHT22;25568;37.410;-122.096;2023-09-30T07:55:39;22.70;85.00
33508;DHT22;25568;37.410;-122.096;2023-09-30T07:58:10;22.70;84.70
33508;DHT22;25568;37.410;-122.096;2023-09-30T08:00:39;22.70;84.50
33508;DHT22;25568;37.410;-122.096;2023-09-30T08:03:08;22.70;84.40
33508;DHT22;25568;37.410;-122.096;2023-09-30T08:05:37;22.70;85.30
33508;DHT22;25568;37.410;-122.096;2023-09-30T08:08:06;22.70;84.80
33508;DHT22;25568;37.410;-122.096;2023-09-30T08:10:35;22.70;85.20
33508;DHT22;25568;37.410;-122.096;2023-09-30T08:13:04;22.70;84.70
33508;DHT22;25568;37.410;-122.096;2023-09-30T08:15:37;22.70;84.90
33508;DHT22;25568;37.410;-122.096;2023-09-30T08:18:06;22.70;85.00
33508;DHT22;25568;37.410;-122.096;2023-09-30T08:20:35;22.70;85.40
33508;DHT22;25568;37.410;-122.096;2023-09-30T08:23:04;22.70;85.10
33508;DHT22;25568;37.410;-122.096;2023-09-30T08:25:33;22.70;85.00
33508;DHT22;25568;37.410;-122.096;2023-09-30T08:28:02;22.70;84.90
33508;DHT22;25568;37.410;-122.096;2023-09-30T08:30:32;22.70;85.00
33508;DHT22;25568;37.410;-122.096;2023-09-30T08:33:03;22.70;85.10
33508;DHT22;25568;37.410;-122.096;2023-09-30T08:35:36;22.70;85.00
33508;DHT22;25568;37.410;-122.096;2023-09-30T08:38:05;22.70;85.30
33508;DHT22;25568;37.410;-122.096;2023-09-30T08:40:34;22.70;85.20
33508;DHT22;25568;37.410;-122.096;2023-09-30T08:43:05;22.70;85.60
33508;DHT22;25568;37.410;-122.096;2023-09-30T08:45:34;22.70;85.80
33508;DHT22;25568;37.410;-122.096;2023-09-30T08:48:08;22.70;86.00
33508;DHT22;25568;37.410;-122.096;2023-09-30T08:50:39;22.70;86.10
33508;DHT22;25568;37.410;-122.096;2023-09-30T08:53:10;22.70;86.80
33508;DHT22;25568;37.410;-122.096;2023-09-30T08:55:42;22.70;86.10
33508;DHT22;25568;37.410;-122.096;2023-09-30T08:58:12;22.70;86.30
33508;DHT22;25568;37.410;-122.096;2023-09-30T09:00:42;22.70;86.30
33508;DHT22;25568;37.410;-122.096;2023-09-30T09:03:13;22.70;86.60
33508;DHT22;25568;37.410;-122.096;2023-09-30T09:05:42;22.70;86.60
33508;DHT22;25568;37.410;-122.096;2023-09-30T09:08:11;22.70;86.70
33508;DHT22;25568;37.410;-122.096;2023-09-30T09:10:54;22.70;87.10
33508;DHT22;25568;37.410;-122.096;2023-09-30T09:13:24;22.70;87.20
33508;DHT22;25568;37.410;-122.096;2023-09-30T09:16:06;22.70;87.10
33508;DHT22;25568;37.410;-122.096;2023-09-30T09:18:39;22.70;87.40
33508;DHT22;25568;37.410;-122.096;2023-09-30T09:21:12;22.70;87.60
33508;DHT22;25568;37.410;-122.096;2023-09-30T09:23:42;22.70;87.70
33508;DHT22;25568;37.410;-122.096;2023-09-30T09:26:12;22.70;87.70
33508;DHT22;25568;37.410;-122.096;2023-09-30T09:28:41;22.70;87.90
33508;DHT22;25568;37.410;-122.096;2023-09-30T09:31:25;22.70;87.80
33508;DHT22;25568;37.410;-122.096;2023-09-30T09:33:57;22.70;88.00
33508;DHT22;25568;37.410;-122.096;2023-09-30T09:36:39;22.70;87.90
33508;DHT22;25568;37.410;-122.096;2023-09-30T09:39:08;22.70;87.90
33508;DHT22;25568;37.410;-122.096;2023-09-30T09:41:50;22.70;87.90
33508;DHT22;25568;37.410;-122.096;2023-09-30T09:44:20;22.70;88.00
33508;DHT22;25568;37.410;-122.096;2023-09-30T09:46:50;22.70;88.20
33508;DHT22;25568;37.410;-122.096;2023-09-30T09:49:21;22.70;88.00
33508;DHT22;25568;37.410;-122.096;2023-09-30T09:51:51;22.70;88.10
33508;DHT22;25568;37.410;-122.096;2023-09-30T09:54:22;22.70;88.10
33508;DHT22;25568;37.410;-122.096;2023-09-30T09:56:52;22.70;87.90
33508;DHT22;25568;37.410;-122.096;2023-09-30T09:59:23;22.70;87.90
33508;DHT22;25568;37.410;-122.096;2023-09-30T10:01:53;22.70;87.90
33508;DHT22;25568;37.410;-122.096;2023-09-30T10:04:24;22.70;88.10
33508;DHT22;25568;37.410;-122.096;2023-09-30T10:06:54;22.70;87.90
33508;DHT22;25568;37.410;-122.096;2023-09-30T10:09:25;22.70;87.90
33508;DHT22;25568;37.410;-122.096;2023-09-30T10:11:58;22.70;88.00
33508;DHT22;25568;37.410;-122.096;2023-09-30T10:14:31;22.70;88.00
33508;DHT22;25568;37.410;-122.096;2023-09-30T10:17:02;22.70;87.90
33508;DHT22;25568;37.410;-122.096;2023-09-30T10:19:33;22.70;88.10
33508;DHT22;25568;37.410;-122.096;2023-09-30T10:22:20;22.70;88.10
33508;DHT22;25568;37.410;-122.096;2023-09-30T10:24:52;22.70;88.00
33508;DHT22;25568;37.410;-122.096;2023-09-30T10:27:32;22.70;88.10
33508;DHT22;25568;37.410;-122.096;2023-09-30T10:30:07;22.70;88.20
33508;DHT22;25568;37.410;-122.096;2023-09-30T10:33:08;22.70;87.70
33508;DHT22;25568;37.410;-122.096;2023-09-30T10:35:46;22.70;88.20
33508;DHT22;25568;37.410;-122.096;2023-09-30T10:38:37;22.70;88.10
33508;DHT22;25568;37.410;-122.096;2023-09-30T10:41:08;22.70;88.20
33508;DHT22;25568;37.410;-122.096;2023-09-30T10:43:40;22.70;88.20
33508;DHT22;25568;37.410;-122.096;2023-09-30T10:46:30;22.70;88.50
33508;DHT22;25568;37.410;-122.096;2023-09-30T10:49:18;22.80;88.70
33508;DHT22;25568;37.410;-122.096;2023-09-30T10:52:01;22.70;88.80
33508;DHT22;25568;37.410;-122.096;2023-09-30T10:54:32;22.70;88.80
33508;DHT22;25568;37.410;-122.096;2023-09-30T10:57:01;22.70;88.90
33508;DHT22;25568;37.410;-122.096;2023-09-30T10:59:31;22.80;88.90
33508;DHT22;25568;37.410;-122.096;2023-09-30T11:02:01;22.80;89.40
33508;DHT22;25568;37.410;-122.096;2023-09-30T11:04:30;22.80;89.30
33508;DHT22;25568;37.410;-122.096;2023-09-30T11:07:19;22.80;89.30
33508;DHT22;25568;37.410;-122.096;2023-09-30T11:09:53;22.90;89.00
33508;DHT22;25568;37.410;-122.096;2023-09-30T11:12:22;22.80;88.50
33508;DHT22;25568;37.410;-122.096;2023-09-30T11:15:00;22.80;88.70
33508;DHT22;25568;37.410;-122.096;2023-09-30T11:17:29;22.80;88.90
33508;DHT22;25568;37.410;-122.096;2023-09-30T11:19:58;22.80;88.50
33508;DHT22;25568;37.410;-122.096;2023-09-30T11:22:29;22.90;89.40
33508;DHT22;25568;37.410;-122.096;2023-09-30T11:24:58;22.90;89.10
33508;DHT22;25568;37.410;-122.096;2023-09-30T11:27:27;22.90;88.90
33508;DHT22;25568;37.410;-122.096;2023-09-30T11:29:57;22.90;88.80
33508;DHT22;25568;37.410;-122.096;2023-09-30T11:32:28;22.90;88.60
33508;DHT22;25568;37.410;-122.096;2023-09-30T11:35:00;22.90;88.60
33508;DHT22;25568;37.410;-122.096;2023-09-30T11:37:34;22.90;88.40
33508;DHT22;25568;37.410;-122.096;2023-09-30T11:40:11;22.90;88.30
33508;DHT22;25568;37.410;-122.096;2023-09-30T11:42:40;22.90;88.60
33508;DHT22;25568;37.410;-122.096;2023-09-30T11:45:23;22.90;87.90
33508;DHT22;25568;37.410;-122.096;2023-09-30T11:47:52;22.90;87.70
33508;DHT22;25568;37.410;-122.096;2023-09-30T11:50:21;22.90;87.90
33508;DHT22;25568;37.410;-122.096;2023-09-30T11:52:52;22.90;87.70
33508;DHT22;25568;37.410;-122.096;2023-09-30T11:55:22;22.90;87.90
33508;DHT22;25568;37.410;-122.096;2023-09-30T11:57:51;22.90;87.80
33508;DHT22;25568;37.410;-122.096;2023-09-30T12:00:21;22.90;87.70
33508;DHT22;25568;37.410;-122.096;2023-09-30T12:02:51;22.90;87.70
33508;DHT22;25568;37.410;-122.096;2023-09-30T12:05:20;22.90;87.50
33508;DHT22;25568;37.410;-122.096;2023-09-30T12:07:51;22.80;87.20
33508;DHT22;25568;37.410;-122.096;2023-09-30T12:10:20;22.80;87.40
33508;DHT22;25568;37.410;-122.096;2023-09-30T12:12:49;22.80;87.40
33508;DHT22;25568;37.410;-122.096;2023-09-30T12:15:18;22.80;87.40
33508;DHT22;25568;37.410;-122.096;2023-09-30T12:17:48;22.80;87.50
33508;DHT22;25568;37.410;-122.096;2023-09-30T12:20:17;22.80;87.70
33508;DHT22;25568;37.410;-122.096;2023-09-30T12:22:47;22.80;87.70
33508;DHT22;25568;37.410;-122.096;2023-09-30T12:25:18;22.70;87.70
33508;DHT22;25568;37.410;-122.096;2023-09-30T12:27:48;22.70;87.70
33508;DHT22;25568;37.410;-122.096;2023-09-30T12:30:17;22.70;87.60
33508;DHT22;25568;37.410;-122.096;2023-09-30T12:32:46;22.70;88.20
33508;DHT22;25568;37.410;-122.096;2023-09-30T12:35:15;22.70;87.60
33508;DHT22;25568;37.410;-122.096;2023-09-30T12:37:44;22.70;87.60
33508;DHT22;25568;37.410;-122.096;2023-09-30T12:40:13;22.70;87.60
33508;DHT22;25568;37.410;-122.096;2023-09-30T12:42:45;22.60;87.60
33508;DHT22;25568;37.410;-122.096;2023-09-30T12:45:14;22.70;87.80
33508;DHT22;25568;37.410;-122.096;2023-09-30T12:47:43;22.70;87.90
33508;DHT22;25568;37.410;-122.096;2023-09-30T12:50:13;22.60;88.00
33508;DHT22;25568;37.410;-122.096;2023-09-30T12:52:42;22.70;88.60
33508;DHT22;25568;37.410;-122.096;2023-09-30T12:55:11;22.70;88.30
33508;DHT22;25568;37.410;-122.096;2023-09-30T12:57:40;22.70;87.90
33508;DHT22;25568;37.410;-122.096;2023-09-30T13:00:12;22.70;88.00
33508;DHT22;25568;37.410;-122.096;2023-09-30T13:02:42;22.60;88.10
33508;DHT22;25568;37.410;-122.096;2023-09-30T13:05:11;22.60;89.00
33508;DHT22;25568;37.410;-122.096;2023-09-30T13:07:40;22.60;87.90
33508;DHT22;25568;37.410;-122.096;2023-09-30T13:10:09;22.60;88.30
33508;DHT22;25568;37.410;-122.096;2023-09-30T13:12:39;22.60;88.20
33508;DHT22;25568;37.410;-122.096;2023-09-30T13:15:11;22.60;88.30
33508;DHT22;25568;37.410;-122.096;2023-09-30T13:17:40;22.60;88.30
33508;DHT22;25568;37.410;-122.096;2023-09-30T13:20:10;22.60;88.10
33508;DHT22;25568;37.410;-122.096;2023-09-30T13:22:40;22.60;87.90
33508;DHT22;25568;37.410;-122.096;2023-09-30T13:25:09;22.60;88.20
33508;DHT22;25568;37.410;-122.096;2023-09-30T13:27:39;22.60;88.60
33508;DHT22;25568;37.410;-122.096;2023-09-30T13:30:10;22.70;88.40
33508;DHT22;25568;37.410;-122.096;2023-09-30T13:32:40;22.70;88.20
33508;DHT22;25568;37.410;-122.096;2023-09-30T13:35:09;22.70;88.10
33508;DHT22;25568;37.410;-122.096;2023-09-30T13:37:37;22.70;87.80
33508;DHT22;25568;37.410;-122.096;2023-09-30T13:40:07;22.70;87.80
33508;DHT22;25568;37.410;-122.096;2023-09-30T13:42:38;22.70;88.40
33508;DHT22;25568;37.410;-122.096;2023-09-30T13:45:08;22.70;88.20
33508;DHT22;25568;37.410;-122.096;2023-09-30T13:47:39;22.70;88.40
33508;DHT22;25568;37.410;-122.096;2023-09-30T13:50:08;22.70;88.10
33508;DHT22;25568;37.410;-122.096;2023-09-30T13:52:37;22.70;87.90
33508;DHT22;25568;37.410;-122.096;2023-09-30T13:55:07;22.70;87.60
33508;DHT22;25568;37.410;-122.096;2023-09-30T13:57:36;22.70;87.30
33508;DHT22;25568;37.410;-122.096;2023-09-30T14:00:05;22.70;87.90
33508;DHT22;25568;37.410;-122.096;2023-09-30T14:02:39;22.70;87.40
33508;DHT22;25568;37.410;-122.096;2023-09-30T14:05:08;22.70;87.40
33508;DHT22;25568;37.410;-122.096;2023-09-30T14:07:38;22.70;87.80
33508;DHT22;25568;37.410;-122.096;2023-09-30T14:10:08;22.70;87.20
33508;DHT22;25568;37.410;-122.096;2023-09-30T14:12:38;22.70;87.60
33508;DHT22;25568;37.410;-122.096;2023-09-30T14:15:08;22.70;87.20
33508;DHT22;25568;37.410;-122.096;2023-09-30T14:17:39;22.70;87.50
33508;DHT22;25568;37.410;-122.096;2023-09-30T14:20:09;22.70;87.60
33508;DHT22;25568;37.410;-122.096;2023-09-30T14:22:38;22.70;87.30
33508;DHT22;25568;37.410;-122.096;2023-09-30T14:25:08;22.60;86.80
33508;DHT22;25568;37.410;-122.096;2023-09-30T14:27:37;22.60;86.40
33508;DHT22;25568;37.410;-122.096;2023-09-30T14:30:07;22.60;86.30
33508;DHT22;25568;37.410;-122.096;2023-09-30T14:32:38;22.60;86.10
33508;DHT22;25568;37.410;-122.096;2023-09-30T14:35:08;22.60;86.60
33508;DHT22;25568;37.410;-122.096;2023-09-30T14:37:37;22.60;85.90
33508;DHT22;25568;37.410;-122.096;2023-09-30T14:40:08;22.60;86.40
33508;DHT22;25568;37.410;-122.096;2023-09-30T14:42:37;22.60;86.30
33508;DHT22;25568;37.410;-122.096;2023-09-30T14:45:09;22.60;86.00
33508;DHT22;25568;37.410;-122.096;2023-09-30T14:47:40;22.60;86.60
33508;DHT22;25568;37.410;-122.096;2023-09-30T14:50:09;22.60;86.60
33508;DHT22;25568;37.410;-122.096;2023-09-30T14:52:38;22.60;86.80
33508;DHT22;25568;37.410;-122.096;2023-09-30T14:55:07;22.60;86.30
33508;DHT22;25568;37.410;-122.096;2023-09-30T14:57:36;22.60;86.60
33508;DHT22;25568;37.410;-122.096;2023-09-30T15:00:06;22.60;87.20
33508;DHT22;25568;37.410;-122.096;2023-09-30T15:02:39;22.60;87.20
33508;DHT22;25568;37.410;-122.096;2023-09-30T15:05:08;22.60;87.20
33508;DHT22;25568;37.410;-122.096;2023-09-30T15:07:37;22.60;87.30
33508;DHT22;25568;37.410;-122.096;2023-09-30T15:10:07;22.60;88.40
33508;DHT22;25568;37.410;-122.096;2023-09-30T15:12:36;22.60;87.30
33508;DHT22;25568;37.410;-122.096;2023-09-30T15:15:06;22.60;87.60
33508;DHT22;25568;37.410;-122.096;2023-09-30T15:17:35;22.50;87.90
33508;DHT22;25568;37.410;-122.096;2023-09-30T15:20:07;22.50;87.70
33508;DHT22;25568;37.410;-122.096;2023-09-30T15:22:36;22.50;87.50
33508;DHT22;25568;37.410;-122.096;2023-09-30T15:25:06;22.50;88.10
33508;DHT22;25568;37.410;-122.096;2023-09-30T15:27:38;22.40;87.80
33508;DHT22;25568;37.410;-122.096;2023-09-30T15:30:07;22.40;86.50
33508;DHT22;25568;37.410;-122.096;2023-09-30T15:32:39;22.30;86.10
33508;DHT22;25568;37.410;-122.096;2023-09-30T15:35:10;22.40;85.30
33508;DHT22;25568;37.410;-122.096;2023-09-30T15:37:39;22.30;84.80
33508;DHT22;25568;37.410;-122.096;2023-09-30T15:40:08;22.30;84.40
33508;DHT22;25568;37.410;-122.096;2023-09-30T15:42:37;22.20;84.30
33508;DHT22;25568;37.410;-122.096;2023-09-30T15:45:07;22.20;84.30
33508;DHT22;25568;37.410;-122.096;2023-09-30T15:47:37;22.20;84.40